sensor_id;sensor_type;location;lat;lon;timestamp;P1;durP1;ratioP1;P2;durP2;ratioP2
23206;SDS011;11773;52.570;13.052;2023-05-10T00:00:09;2.80;;;2.60;;
23206;SDS011;11773;52.570;13.052;2023-05-10T00:02:39;3.20;;;2.90;;
23206;SDS011;11773;52.570;13.052;2023-05-10T00:05:09;2.83;;;2.47;;
23206;SDS011;11773;52.570;13.052;2023-05-10T00:07:38;2.20;;;2.00;;
23206;SDS011;11773;52.570;13.052;2023-05-10T00:10:10;2.97;;;2.67;;
23206;SDS011;11773;52.570;13.052;2023-05-10T00:12:40;3.00;;;2.60;;
23206;SDS011;11773;52.570;13.052;2023-05-10T00:15:10;2.73;;;2.40;;
23206;SDS011;11773;52.570;13.052;2023-05-10T00:17:39;2.50;;;2.30;;
23206;SDS011;11773;52.570;13.052;2023-05-10T00:20:09;2.20;;;2.00;;
23206;SDS011;11773;52.570;13.052;2023-05-10T00:22:39;2.50;;;2.30;;
23206;SDS011;11773;52.570;13.052;2023-05-10T00:25:09;2.37;;;2.17;;
23206;SDS011;11773;52.570;13.052;2023-05-10T00:27:39;2.53;;;2.33;;
23206;SDS011;11773;52.570;13.052;2023-05-10T00:30:08;2.63;;;2.43;;
23206;SDS011;11773;52.570;13.052;2023-05-10T00:32:38;2.47;;;2.10;;
23206;SDS011;11773;52.570;13.052;2023-05-10T00:35:08;2.60;;;2.30;;
23206;SDS011;11773;52.570;13.052;2023-05-10T00:37:37;2.50;;;2.30;;
23206;SDS011;11773;52.570;13.052;2023-05-10T00:40:07;2.93;;;2.23;;
23206;SDS011;11773;52.570;13.052;2023-05-10T00:42:37;2.70;;;2.50;;
23206;SDS011;11773;52.570;13.052;2023-05-10T00:45:07;2.33;;;2.10;;
23206;SDS011;11773;52.570;13.052;2023-05-10T00:47:38;2.40;;;2.20;;
23206;SDS011;11773;52.570;13.052;2023-05-10T00:50:08;3.13;;;2.50;;
23206;SDS011;11773;52.570;13.052;2023-05-10T00:52:38;2.60;;;2.40;;
23206;SDS011;11773;52.570;13.052;2023-05-10T00:55:09;2.67;;;2.30;;
23206;SDS011;11773;52.570;13.052;2023-05-10T00:57:39;2.30;;;2.10;;
23206;SDS011;11773;52.570;13.052;2023-05-10T01:00:10;2.00;;;1.83;;
23206;SDS011;11773;52.570;13.052;2023-05-10T01:02:43;2.33;;;2.17;;
23206;SDS011;11773;52.570;13.052;2023-05-10T01:05:15;2.83;;;2.20;;
23206;SDS011;11773;52.570;13.052;2023-05-10T01:07:44;2.30;;;2.10;;
23206;SDS011;11773;52.570;13.052;2023-05-10T01:10:15;2.83;;;2.50;;
23206;SDS011;11773;52.570;13.052;2023-05-10T01:12:46;2.43;;;2.23;;
23206;SDS011;11773;52.570;13.052;2023-05-10T01:15:15;2.30;;;2.10;;
23206;SDS011;11773;52.570;13.052;2023-05-10T01:17:48;2.27;;;2.07;;
23206;SDS011;11773;52.570;13.052;2023-05-10T01:20:18;1.93;;;1.80;;
23206;SDS011;11773;52.570;13.052;2023-05-10T01:22:58;2.00;;;1.90;;
23206;SDS011;11773;52.570;13.052;2023-05-10T01:25:45;1.90;;;1.80;;
23206;SDS011;11773;52.570;13.052;2023-05-10T01:34:27;2.00;;;1.90;;
23206;SDS011;11773;52.570;13.052;2023-05-10T01:37:13;1.90;;;1.70;;
23206;SDS011;11773;52.570;13.052;2023-05-10T01:39:58;2.73;;;2.20;;
23206;SDS011;11773;52.570;13.052;2023-05-10T01:42:30;2.70;;;2.50;;
23206;SDS011;11773;52.570;13.052;2023-05-10T01:45:18;2.30;;;2.10;;
23206;SDS011;11773;52.570;13.052;2023-05-10T01:47:58;2.50;;;2.30;;
23206;SDS011;11773;52.570;13.052;2023-05-10T01:50:39;3.00;;;2.50;;
23206;SDS011;11773;52.570;13.052;2023-05-10T01:53:13;2.77;;;2.57;;
23206;SDS011;11773;52.570;13.052;2023-05-10T01:55:51;2.83;;;2.60;;
23206;SDS011;11773;52.570;13.052;2023-05-10T01:58:25;4.47;;;2.70;;
23206;SDS011;11773;52.570;13.052;2023-05-10T02:00:58;2.43;;;2.23;;
23206;SDS011;11773;52.570;13.052;2023-05-10T02:03:31;3.07;;;2.77;;
23206;SDS011;11773;52.570;13.052;2023-05-10T02:06:03;2.60;;;2.40;;
23206;SDS011;11773;52.570;13.052;2023-05-10T02:08:36;2.40;;;2.20;;
23206;SDS011;11773;52.570;13.052;2023-05-10T02:11:08;2.60;;;2.20;;
23206;SDS011;11773;52.570;13.052;2023-05-10T02:13:42;2.50;;;2.30;;
23206;SDS011;11773;52.570;13.052;2023-05-10T02:16:14;2.57;;;2.37;;
23206;SDS011;11773;52.570;13.052;2023-05-10T02:18:47;2.40;;;2.20;;
23206;SDS011;11773;52.570;13.052;2023-05-10T02:21:19;2.40;;;2.20;;
23206;SDS011;11773;52.570;13.052;2023-05-10T02:23:50;2.33;;;2.13;;
23206;SDS011;11773;52.570;13.052;2023-05-10T02:26:22;3.17;;;2.20;;
23206;SDS011;11773;52.570;13.052;2023-05-10T02:28:53;2.90;;;2.60;;
23206;SDS011;11773;52.570;13.052;2023-05-10T02:31:26;2.90;;;2.70;;
23206;SDS011;11773;52.570;13.052;2023-05-10T02:33:57;2.70;;;2.37;;
23206;SDS011;11773;52.570;13.052;2023-05-10T02:36:29;2.77;;;2.57;;
23206;SDS011;11773;52.570;13.052;2023-05-10T02:38:59;4.37;;;2.60;;
23206;SDS011;11773;52.570;13.052;2023-05-10T02:41:31;2.90;;;2.70;;
23206;SDS011;11773;52.570;13.052;2023-05-10T02:44:02;3.47;;;2.73;;
23206;SDS011;11773;52.570;13.052;2023-05-10T02:46:34;2.83;;;2.63;;
23206;SDS011;11773;52.570;13.052;2023-05-10T02:49:04;2.63;;;2.43;;
23206;SDS011;11773;52.570;13.052;2023-05-10T02:51:35;2.47;;;2.23;;
23206;SDS011;11773;52.570;13.052;2023-05-10T02:54:12;2.37;;;2.17;;
23206;SDS011;11773;52.570;13.052;2023-05-10T02:56:50;2.47;;;2.27;;
23206;SDS011;11773;52.570;13.052;2023-05-10T02:59:25;2.50;;;2.30;;
23206;SDS011;11773;52.570;13.052;2023-05-10T03:01:55;2.50;;;2.30;;
23206;SDS011;11773;52.570;13.052;2023-05-10T03:04:24;3.00;;;2.60;;
23206;SDS011;11773;52.570;13.052;2023-05-10T03:06:54;3.00;;;2.70;;
23206;SDS011;11773;52.570;13.052;2023-05-10T03:09:24;3.30;;;3.00;;
23206;SDS011;11773;52.570;13.052;2023-05-10T03:12:00;2.97;;;2.67;;
23206;SDS011;11773;52.570;13.052;2023-05-10T03:17:49;2.77;;;2.43;;
23206;SDS011;11773;52.570;13.052;2023-05-10T03:20:38;2.83;;;2.43;;
23206;SDS011;11773;52.570;13.052;2023-05-10T03:23:20;2.43;;;2.23;;
23206;SDS011;11773;52.570;13.052;2023-05-10T03:25:55;2.83;;;2.60;;
23206;SDS011;11773;52.570;13.052;2023-05-10T03:28:27;3.03;;;2.73;;
23206;SDS011;11773;52.570;13.052;2023-05-10T03:30:57;2.70;;;2.50;;
23206;SDS011;11773;52.570;13.052;2023-05-10T03:33:28;3.00;;;2.70;;
23206;SDS011;11773;52.570;13.052;2023-05-10T03:35:58;2.60;;;2.40;;
23206;SDS011;11773;52.570;13.052;2023-05-10T03:38:28;2.93;;;2.53;;
23206;SDS011;11773;52.570;13.052;2023-05-10T03:40:57;2.10;;;1.90;;
23206;SDS011;11773;52.570;13.052;2023-05-10T03:43:27;3.73;;;2.67;;
23206;SDS011;11773;52.570;13.052;2023-05-10T03:45:56;2.50;;;2.30;;
23206;SDS011;11773;52.570;13.052;2023-05-10T03:48:26;2.47;;;2.27;;
23206;SDS011;11773;52.570;13.052;2023-05-10T03:50:56;3.77;;;2.60;;
23206;SDS011;11773;52.570;13.052;2023-05-10T03:53:25;3.43;;;3.13;;
23206;SDS011;11773;52.570;13.052;2023-05-10T03:55:55;2.70;;;2.50;;
23206;SDS011;11773;52.570;13.052;2023-05-10T03:58:24;3.07;;;2.77;;
23206;SDS011;11773;52.570;13.052;2023-05-10T04:00:54;3.10;;;2.80;;
23206;SDS011;11773;52.570;13.052;2023-05-10T04:03:23;3.40;;;3.10;;
23206;SDS011;11773;52.570;13.052;2023-05-10T04:06:02;3.20;;;2.90;;
23206;SDS011;11773;52.570;13.052;2023-05-10T04:08:32;3.20;;;2.90;;
23206;SDS011;11773;52.570;13.052;2023-05-10T04:11:09;3.20;;;2.93;;
23206;SDS011;11773;52.570;13.052;2023-05-10T04:13:40;3.20;;;2.90;;
23206;SDS011;11773;52.570;13.052;2023-05-10T04:16:10;4.13;;;3.53;;
23206;SDS011;11773;52.570;13.052;2023-05-10T04:18:40;2.97;;;2.77;;
23206;SDS011;11773;52.570;13.052;2023-05-10T04:21:12;3.20;;;2.90;;
23206;SDS011;11773;52.570;13.052;2023-05-10T04:23:42;3.03;;;2.57;;
23206;SDS011;11773;52.570;13.052;2023-05-10T04:26:12;2.67;;;2.47;;
23206;SDS011;11773;52.570;13.052;2023-05-10T04:28:42;2.97;;;2.47;;
23206;SDS011;11773;52.570;13.052;2023-05-10T04:31:11;2.50;;;2.30;;
23206;SDS011;11773;52.570;13.052;2023-05-10T04:33:41;3.10;;;2.80;;
23206;SDS011;11773;52.570;13.052;2023-05-10T04:36:11;2.67;;;2.40;;
23206;SDS011;11773;52.570;13.052;2023-05-10T04:38:40;3.30;;;2.90;;
23206;SDS011;11773;52.570;13.052;2023-05-10T04:41:10;2.80;;;2.43;;
23206;SDS011;11773;52.570;13.052;2023-05-10T04:43:40;2.80;;;2.50;;
23206;SDS011;11773;52.570;13.052;2023-05-10T04:46:09;4.30;;;2.47;;
23206;SDS011;11773;52.570;13.052;2023-05-10T04:48:39;3.00;;;2.43;;
23206;SDS011;11773;52.570;13.052;2023-05-10T04:51:09;2.80;;;2.50;;
23206;SDS011;11773;52.570;13.052;2023-05-10T04:53:39;2.60;;;2.40;;
23206;SDS011;11773;52.570;13.052;2023-05-10T04:56:10;3.10;;;2.70;;
23206;SDS011;11773;52.570;13.052;2023-05-10T04:58:40;3.30;;;2.83;;
23206;SDS011;11773;52.570;13.052;2023-05-10T05:01:09;2.80;;;2.47;;
23206;SDS011;11773;52.570;13.052;2023-05-10T05:03:39;3.57;;;2.57;;
23206;SDS011;11773;52.570;13.052;2023-05-10T05:06:09;2.73;;;2.53;;
23206;SDS011;11773;52.570;13.052;2023-05-10T05:08:39;2.93;;;2.67;;
23206;SDS011;11773;52.570;13.052;2023-05-10T05:11:08;4.00;;;2.80;;
23206;SDS011;11773;52.570;13.052;2023-05-10T05:13:38;3.00;;;2.60;;
23206;SDS011;11773;52.570;13.052;2023-05-10T05:16:07;2.97;;;2.40;;
23206;SDS011;11773;52.570;13.052;2023-05-10T05:18:38;3.03;;;2.50;;
23206;SDS011;11773;52.570;13.052;2023-05-10T05:21:14;2.83;;;2.37;;
23206;SDS011;11773;52.570;13.052;2023-05-10T05:23:48;2.60;;;2.40;;
23206;SDS011;11773;52.570;13.052;2023-05-10T05:26:17;3.50;;;2.50;;
23206;SDS011;11773;52.570;13.052;2023-05-10T05:28:48;3.20;;;2.90;;
23206;SDS011;11773;52.570;13.052;2023-05-10T05:31:19;3.20;;;2.60;;
23206;SDS011;11773;52.570;13.052;2023-05-10T05:33:49;2.40;;;2.20;;
23206;SDS011;11773;52.570;13.052;2023-05-10T05:36:18;2.67;;;2.47;;
23206;SDS011;11773;52.570;13.052;2023-05-10T05:38:48;2.27;;;2.07;;
23206;SDS011;11773;52.570;13.052;2023-05-10T05:41:17;2.50;;;2.30;;
23206;SDS011;11773;52.570;13.052;2023-05-10T05:43:48;2.37;;;2.10;;
23206;SDS011;11773;52.570;13.052;2023-05-10T05:46:18;2.53;;;2.33;;
23206;SDS011;11773;52.570;13.052;2023-05-10T05:48:47;2.60;;;2.40;;
23206;SDS011;11773;52.570;13.052;2023-05-10T05:51:17;2.43;;;2.23;;
23206;SDS011;11773;52.570;13.052;2023-05-10T05:53:47;2.30;;;2.10;;
23206;SDS011;11773;52.570;13.052;2023-05-10T05:56:16;2.40;;;2.20;;
23206;SDS011;11773;52.570;13.052;2023-05-10T05:58:47;2.50;;;2.30;;
23206;SDS011;11773;52.570;13.052;2023-05-10T06:01:17;2.67;;;2.47;;
23206;SDS011;11773;52.570;13.052;2023-05-10T06:03:47;2.37;;;2.17;;
23206;SDS011;11773;52.570;13.052;2023-05-10T06:06:18;2.93;;;2.20;;
23206;SDS011;11773;52.570;13.052;2023-05-10T06:08:47;2.70;;;2.37;;
23206;SDS011;11773;52.570;13.052;2023-05-10T06:11:17;2.50;;;2.20;;
23206;SDS011;11773;52.570;13.052;2023-05-10T06:13:48;3.50;;;2.73;;
23206;SDS011;11773;52.570;13.052;2023-05-10T06:16:17;2.00;;;1.83;;
23206;SDS011;11773;52.570;13.052;2023-05-10T06:18:47;3.53;;;2.23;;
23206;SDS011;11773;52.570;13.052;2023-05-10T06:21:17;1.90;;;1.80;;
23206;SDS011;11773;52.570;13.052;2023-05-10T06:23:46;2.73;;;2.30;;
23206;SDS011;11773;52.570;13.052;2023-05-10T06:26:16;2.30;;;2.10;;
23206;SDS011;11773;52.570;13.052;2023-05-10T06:28:47;2.90;;;2.60;;
23206;SDS011;11773;52.570;13.052;2023-05-10T06:31:17;2.87;;;2.33;;
23206;SDS011;11773;52.570;13.052;2023-05-10T06:33:46;2.40;;;2.17;;
23206;SDS011;11773;52.570;13.052;2023-05-10T06:36:16;3.03;;;1.93;;
23206;SDS011;11773;52.570;13.052;2023-05-10T06:38:46;1.97;;;1.87;;
23206;SDS011;11773;52.570;13.052;2023-05-10T06:41:15;1.93;;;1.83;;
23206;SDS011;11773;52.570;13.052;2023-05-10T06:43:45;2.17;;;1.97;;
23206;SDS011;11773;52.570;13.052;2023-05-10T06:46:14;4.13;;;2.47;;
23206;SDS011;11773;52.570;13.052;2023-05-10T06:48:44;2.70;;;2.13;;
23206;SDS011;11773;52.570;13.052;2023-05-10T06:51:13;2.53;;;1.90;;
23206;SDS011;11773;52.570;13.052;2023-05-10T06:53:43;2.27;;;2.03;;
23206;SDS011;11773;52.570;13.052;2023-05-10T06:56:13;2.13;;;1.90;;
23206;SDS011;11773;52.570;13.052;2023-05-10T06:58:42;2.30;;;2.10;;
23206;SDS011;11773;52.570;13.052;2023-05-10T07:01:12;2.53;;;2.10;;
23206;SDS011;11773;52.570;13.052;2023-05-10T07:03:42;2.97;;;2.00;;
23206;SDS011;11773;52.570;13.052;2023-05-10T07:06:12;2.20;;;2.00;;
23206;SDS011;11773;52.570;13.052;2023-05-10T07:08:43;1.90;;;1.70;;
23206;SDS011;11773;52.570;13.052;2023-05-10T07:11:12;2.00;;;1.80;;
23206;SDS011;11773;52.570;13.052;2023-05-10T07:13:42;2.30;;;2.00;;
23206;SDS011;11773;52.570;13.052;2023-05-10T07:16:13;2.50;;;1.77;;
23206;SDS011;11773;52.570;13.052;2023-05-10T07:18:42;1.77;;;1.67;;
23206;SDS011;11773;52.570;13.052;2023-05-10T07:21:12;2.20;;;2.00;;
23206;SDS011;11773;52.570;13.052;2023-05-10T07:23:42;1.90;;;1.80;;
23206;SDS011;11773;52.570;13.052;2023-05-10T07:26:11;1.77;;;1.67;;
23206;SDS011;11773;52.570;13.052;2023-05-10T07:28:41;1.80;;;1.70;;
23206;SDS011;11773;52.570;13.052;2023-05-10T07:31:11;2.10;;;1.90;;
23206;SDS011;11773;52.570;13.052;2023-05-10T07:33:40;2.80;;;2.23;;
23206;SDS011;11773;52.570;13.052;2023-05-10T07:36:10;1.90;;;1.70;;
23206;SDS011;11773;52.570;13.052;2023-05-10T07:38:40;1.70;;;1.60;;
23206;SDS011;11773;52.570;13.052;2023-05-10T07:41:11;1.83;;;1.73;;
23206;SDS011;11773;52.570;13.052;2023-05-10T07:43:40;2.53;;;1.83;;
23206;SDS011;11773;52.570;13.052;2023-05-10T07:46:10;2.27;;;1.87;;
23206;SDS011;11773;52.570;13.052;2023-05-10T07:48:40;2.30;;;1.97;;
23206;SDS011;11773;52.570;13.052;2023-05-10T07:51:09;1.87;;;1.77;;
23206;SDS011;11773;52.570;13.052;2023-05-10T07:53:39;2.07;;;1.90;;
23206;SDS011;11773;52.570;13.052;2023-05-10T07:56:22;1.80;;;1.70;;
23206;SDS011;11773;52.570;13.052;2023-05-10T07:59:00;2.03;;;1.93;;
23206;SDS011;11773;52.570;13.052;2023-05-10T08:01:33;2.33;;;2.13;;
23206;SDS011;11773;52.570;13.052;2023-05-10T08:04:03;4.13;;;2.20;;
23206;SDS011;11773;52.570;13.052;2023-05-10T08:06:32;2.10;;;1.90;;
23206;SDS011;11773;52.570;13.052;2023-05-10T08:09:02;2.00;;;1.90;;
23206;SDS011;11773;52.570;13.052;2023-05-10T08:11:31;2.03;;;1.93;;
23206;SDS011;11773;52.570;13.052;2023-05-10T08:14:02;2.10;;;1.90;;
23206;SDS011;11773;52.570;13.052;2023-05-10T08:16:32;1.90;;;1.80;;
23206;SDS011;11773;52.570;13.052;2023-05-10T08:19:01;2.00;;;1.80;;
23206;SDS011;11773;52.570;13.052;2023-05-10T08:21:31;1.73;;;1.60;;
23206;SDS011;11773;52.570;13.052;2023-05-10T08:24:01;2.10;;;1.90;;
23206;SDS011;11773;52.570;13.052;2023-05-10T08:26:32;1.73;;;1.63;;
23206;SDS011;11773;52.570;13.052;2023-05-10T08:29:01;2.00;;;1.80;;
23206;SDS011;11773;52.570;13.052;2023-05-10T08:31:31;1.70;;;1.60;;
23206;SDS011;11773;52.570;13.052;2023-05-10T08:34:01;1.77;;;1.67;;
23206;SDS011;11773;52.570;13.052;2023-05-10T08:36:30;2.10;;;1.90;;
23206;SDS011;11773;52.570;13.052;2023-05-10T08:39:00;1.83;;;1.73;;
23206;SDS011;11773;52.570;13.052;2023-05-10T08:41:30;1.70;;;1.60;;
23206;SDS011;11773;52.570;13.052;2023-05-10T08:44:03;1.60;;;1.50;;
23206;SDS011;11773;52.570;13.052;2023-05-10T08:46:35;2.70;;;1.40;;
23206;SDS011;11773;52.570;13.052;2023-05-10T08:49:09;1.90;;;1.80;;
23206;SDS011;11773;52.570;13.052;2023-05-10T08:51:44;1.90;;;1.70;;
23206;SDS011;11773;52.570;13.052;2023-05-10T08:54:18;2.23;;;1.80;;
23206;SDS011;11773;52.570;13.052;2023-05-10T08:56:48;1.77;;;1.67;;
23206;SDS011;11773;52.570;13.052;2023-05-10T08:59:18;1.70;;;1.60;;
23206;SDS011;11773;52.570;13.052;2023-05-10T09:01:48;1.70;;;1.60;;
23206;SDS011;11773;52.570;13.052;2023-05-10T09:04:20;2.47;;;1.90;;
23206;SDS011;11773;52.570;13.052;2023-05-10T09:06:50;2.43;;;1.73;;
23206;SDS011;11773;52.570;13.052;2023-05-10T09:09:20;2.03;;;1.90;;
23206;SDS011;11773;52.570;13.052;2023-05-10T09:11:52;1.87;;;1.77;;
23206;SDS011;11773;52.570;13.052;2023-05-10T09:14:23;1.73;;;1.63;;
23206;SDS011;11773;52.570;13.052;2023-05-10T09:16:53;1.63;;;1.53;;
23206;SDS011;11773;52.570;13.052;2023-05-10T09:19:23;1.40;;;1.30;;
23206;SDS011;11773;52.570;13.052;2023-05-10T09:21:53;2.20;;;2.00;;
23206;SDS011;11773;52.570;13.052;2023-05-10T09:24:26;2.07;;;1.90;;
23206;SDS011;11773;52.570;13.052;2023-05-10T09:26:57;2.00;;;1.90;;
23206;SDS011;11773;52.570;13.052;2023-05-10T09:29:28;1.53;;;1.43;;
23206;SDS011;11773;52.570;13.052;2023-05-10T09:32:12;4.73;;;2.10;;
23206;SDS011;11773;52.570;13.052;2023-05-10T09:34:43;1.90;;;1.80;;
23206;SDS011;11773;52.570;13.052;2023-05-10T09:37:12;2.43;;;1.80;;
23206;SDS011;11773;52.570;13.052;2023-05-10T09:39:42;1.40;;;1.30;;
23206;SDS011;11773;52.570;13.052;2023-05-10T09:42:11;1.93;;;1.70;;
23206;SDS011;11773;52.570;13.052;2023-05-10T09:44:42;1.97;;;1.67;;
23206;SDS011;11773;52.570;13.052;2023-05-10T09:47:17;1.80;;;1.70;;
23206;SDS011;11773;52.570;13.052;2023-05-10T09:49:50;1.60;;;1.50;;
23206;SDS011;11773;52.570;13.052;2023-05-10T09:52:22;2.23;;;1.57;;
23206;SDS011;11773;52.570;13.052;2023-05-10T09:54:52;2.03;;;1.90;;
23206;SDS011;11773;52.570;13.052;2023-05-10T09:57:23;1.70;;;1.60;;
23206;SDS011;11773;52.570;13.052;2023-05-10T09:59:53;1.73;;;1.63;;
23206;SDS011;11773;52.570;13.052;2023-05-10T10:02:28;2.13;;;1.90;;
23206;SDS011;11773;52.570;13.052;2023-05-10T10:04:57;2.10;;;1.90;;
23206;SDS011;11773;52.570;13.052;2023-05-10T10:07:30;2.10;;;1.90;;
23206;SDS011;11773;52.570;13.052;2023-05-10T10:10:00;1.40;;;1.30;;
23206;SDS011;11773;52.570;13.052;2023-05-10T10:12:31;3.27;;;2.40;;
23206;SDS011;11773;52.570;13.052;2023-05-10T10:15:02;1.90;;;1.80;;
23206;SDS011;11773;52.570;13.052;2023-05-10T10:17:33;2.60;;;2.40;;
23206;SDS011;11773;52.570;13.052;2023-05-10T10:20:08;2.17;;;2.07;;
23206;SDS011;11773;52.570;13.052;2023-05-10T10:22:38;2.67;;;1.93;;
23206;SDS011;11773;52.570;13.052;2023-05-10T10:25:08;2.10;;;1.60;;
23206;SDS011;11773;52.570;13.052;2023-05-10T10:27:47;1.60;;;1.50;;
23206;SDS011;11773;52.570;13.052;2023-05-10T10:30:42;1.87;;;1.77;;
23206;SDS011;11773;52.570;13.052;2023-05-10T10:33:24;1.70;;;1.60;;
23206;SDS011;11773;52.570;13.052;2023-05-10T10:36:08;1.63;;;1.53;;
23206;SDS011;11773;52.570;13.052;2023-05-10T10:41:35;1.27;;;1.17;;
23206;SDS011;11773;52.570;13.052;2023-05-10T10:49:49;1.70;;;1.60;;
23206;SDS011;11773;52.570;13.052;2023-05-10T10:52:37;1.93;;;1.73;;
23206;SDS011;11773;52.570;13.052;2023-05-10T10:55:20;1.70;;;1.60;;
23206;SDS011;11773;52.570;13.052;2023-05-10T10:57:52;1.83;;;1.47;;
23206;SDS011;11773;52.570;13.052;2023-05-10T11:00:31;1.70;;;1.60;;
23206;SDS011;11773;52.570;13.052;2023-05-10T11:03:04;1.60;;;1.50;;
23206;SDS011;11773;52.570;13.052;2023-05-10T11:05:45;1.70;;;1.60;;
23206;SDS011;11773;52.570;13.052;2023-05-10T11:08:17;1.60;;;1.50;;
23206;SDS011;11773;52.570;13.052;2023-05-10T11:13:43;1.80;;;1.60;;
23206;SDS011;11773;52.570;13.052;2023-05-10T11:16:18;1.80;;;1.70;;
23206;SDS011;11773;52.570;13.052;2023-05-10T11:18:54;1.63;;;1.53;;
23206;SDS011;11773;52.570;13.052;2023-05-10T11:21:33;1.73;;;1.63;;
23206;SDS011;11773;52.570;13.052;2023-05-10T11:24:22;2.77;;;1.57;;
23206;SDS011;11773;52.570;13.052;2023-05-10T11:26:55;1.77;;;1.67;;
23206;SDS011;11773;52.570;13.052;2023-05-10T11:29:25;1.80;;;1.70;;
23206;SDS011;11773;52.570;13.052;2023-05-10T11:31:56;1.70;;;1.60;;
23206;SDS011;11773;52.570;13.052;2023-05-10T11:34:27;2.20;;;1.70;;
23206;SDS011;11773;52.570;13.052;2023-05-10T11:37:00;2.17;;;1.70;;
23206;SDS011;11773;52.570;13.052;2023-05-10T11:39:30;1.80;;;1.70;;
23206;SDS011;11773;52.570;13.052;2023-05-10T11:42:00;1.63;;;1.53;;
23206;SDS011;11773;52.570;13.052;2023-05-10T11:44:31;2.00;;;1.80;;
23206;SDS011;11773;52.570;13.052;2023-05-10T11:47:01;1.90;;;1.80;;
23206;SDS011;11773;52.570;13.052;2023-05-10T11:49:31;1.80;;;1.70;;
23206;SDS011;11773;52.570;13.052;2023-05-10T11:52:04;1.87;;;1.77;;
23206;SDS011;11773;52.570;13.052;2023-05-10T11:54:34;2.17;;;2.07;;
23206;SDS011;11773;52.570;13.052;2023-05-10T11:57:04;1.93;;;1.73;;
23206;SDS011;11773;52.570;13.052;2023-05-10T11:59:33;1.60;;;1.50;;
23206;SDS011;11773;52.570;13.052;2023-05-10T12:02:04;1.60;;;1.33;;
23206;SDS011;11773;52.570;13.052;2023-05-10T12:04:33;1.50;;;1.40;;
23206;SDS011;11773;52.570;13.052;2023-05-10T12:07:03;1.57;;;1.30;;
23206;SDS011;11773;52.570;13.052;2023-05-10T12:09:33;1.30;;;1.20;;
23206;SDS011;11773;52.570;13.052;2023-05-10T12:12:04;1.50;;;1.40;;
23206;SDS011;11773;52.570;13.052;2023-05-10T12:14:34;1.27;;;1.17;;
23206;SDS011;11773;52.570;13.052;2023-05-10T12:17:05;1.20;;;1.20;;
23206;SDS011;11773;52.570;13.052;2023-05-10T12:19:39;1.30;;;1.20;;
23206;SDS011;11773;52.570;13.052;2023-05-10T12:22:10;1.77;;;1.67;;
23206;SDS011;11773;52.570;13.052;2023-05-10T12:24:40;1.93;;;1.47;;
23206;SDS011;11773;52.570;13.052;2023-05-10T12:27:09;1.70;;;1.60;;
23206;SDS011;11773;52.570;13.052;2023-05-10T12:29:41;1.70;;;1.60;;
23206;SDS011;11773;52.570;13.052;2023-05-10T12:32:11;2.07;;;1.40;;
23206;SDS011;11773;52.570;13.052;2023-05-10T12:34:41;1.50;;;1.40;;
23206;SDS011;11773;52.570;13.052;2023-05-10T12:37:10;1.60;;;1.50;;
23206;SDS011;11773;52.570;13.052;2023-05-10T12:39:41;1.50;;;1.40;;
23206;SDS011;11773;52.570;13.052;2023-05-10T12:42:13;2.10;;;1.80;;
23206;SDS011;11773;52.570;13.052;2023-05-10T12:44:42;1.53;;;1.13;;
23206;SDS011;11773;52.570;13.052;2023-05-10T12:47:12;1.33;;;1.23;;
23206;SDS011;11773;52.570;13.052;2023-05-10T12:49:41;1.57;;;1.47;;
23206;SDS011;11773;52.570;13.052;2023-05-10T12:52:11;1.20;;;1.20;;
23206;SDS011;11773;52.570;13.052;2023-05-10T12:54:40;1.80;;;1.70;;
23206;SDS011;11773;52.570;13.052;2023-05-10T12:57:10;1.30;;;1.20;;
23206;SDS011;11773;52.570;13.052;2023-05-10T12:59:40;1.20;;;1.20;;
23206;SDS011;11773;52.570;13.052;2023-05-10T13:02:09;1.13;;;1.10;;
23206;SDS011;11773;52.570;13.052;2023-05-10T13:04:40;2.17;;;1.37;;
23206;SDS011;11773;52.570;13.052;2023-05-10T13:07:10;1.80;;;1.70;;
23206;SDS011;11773;52.570;13.052;2023-05-10T13:09:39;1.53;;;1.43;;
23206;SDS011;11773;52.570;13.052;2023-05-10T13:12:09;1.20;;;1.20;;
23206;SDS011;11773;52.570;13.052;2023-05-10T13:14:38;1.77;;;1.67;;
23206;SDS011;11773;52.570;13.052;2023-05-10T13:17:08;1.93;;;1.83;;
23206;SDS011;11773;52.570;13.052;2023-05-10T13:19:37;1.90;;;1.80;;
23206;SDS011;11773;52.570;13.052;2023-05-10T13:22:07;1.63;;;1.53;;
23206;SDS011;11773;52.570;13.052;2023-05-10T13:24:37;1.70;;;1.60;;
23206;SDS011;11773;52.570;13.052;2023-05-10T13:27:06;3.27;;;1.30;;
23206;SDS011;11773;52.570;13.052;2023-05-10T13:29:36;1.50;;;1.40;;
23206;SDS011;11773;52.570;13.052;2023-05-10T13:32:05;1.90;;;1.80;;
23206;SDS011;11773;52.570;13.052;2023-05-10T13:34:35;1.40;;;1.30;;
23206;SDS011;11773;52.570;13.052;2023-05-10T13:37:04;1.53;;;1.43;;
23206;SDS011;11773;52.570;13.052;2023-05-10T13:39:34;2.77;;;1.83;;
23206;SDS011;11773;52.570;13.052;2023-05-10T13:42:04;1.50;;;1.40;;
23206;SDS011;11773;52.570;13.052;2023-05-10T13:44:34;1.17;;;1.07;;
23206;SDS011;11773;52.570;13.052;2023-05-10T13:47:05;1.30;;;1.20;;
23206;SDS011;11773;52.570;13.052;2023-05-10T13:49:35;1.47;;;1.37;;
23206;SDS011;11773;52.570;13.052;2023-05-10T13:52:05;0.80;;;0.80;;
23206;SDS011;11773;52.570;13.052;2023-05-10T13:54:34;1.20;;;1.10;;
23206;SDS011;11773;52.570;13.052;2023-05-10T13:57:05;1.60;;;1.50;;
23206;SDS011;11773;52.570;13.052;2023-05-10T13:59:35;1.63;;;1.53;;
23206;SDS011;11773;52.570;13.052;2023-05-10T14:02:05;1.70;;;1.60;;
23206;SDS011;11773;52.570;13.052;2023-05-10T14:04:35;1.60;;;1.50;;
23206;SDS011;11773;52.570;13.052;2023-05-10T14:07:05;1.73;;;1.63;;
23206;SDS011;11773;52.570;13.052;2023-05-10T14:09:34;1.80;;;1.70;;
23206;SDS011;11773;52.570;13.052;2023-05-10T14:12:04;1.73;;;1.60;;
23206;SDS011;11773;52.570;13.052;2023-05-10T14:14:33;1.27;;;1.17;;
23206;SDS011;11773;52.570;13.052;2023-05-10T14:17:03;1.57;;;1.47;;
23206;SDS011;11773;52.570;13.052;2023-05-10T14:19:32;1.50;;;1.40;;
23206;SDS011;11773;52.570;13.052;2023-05-10T14:22:02;1.90;;;1.80;;
23206;SDS011;11773;52.570;13.052;2023-05-10T14:24:31;1.67;;;1.57;;
23206;SDS011;11773;52.570;13.052;2023-05-10T14:27:01;1.20;;;1.20;;
23206;SDS011;11773;52.570;13.052;2023-05-10T14:29:30;1.57;;;1.40;;
23206;SDS011;11773;52.570;13.052;2023-05-10T14:32:00;1.50;;;1.40;;
23206;SDS011;11773;52.570;13.052;2023-05-10T14:34:29;1.80;;;1.70;;
23206;SDS011;11773;52.570;13.052;2023-05-10T14:36:59;1.50;;;1.40;;
23206;SDS011;11773;52.570;13.052;2023-05-10T14:39:28;1.40;;;1.30;;
23206;SDS011;11773;52.570;13.052;2023-05-10T14:41:58;1.27;;;1.17;;
23206;SDS011;11773;52.570;13.052;2023-05-10T14:44:29;1.00;;;1.00;;
23206;SDS011;11773;52.570;13.052;2023-05-10T14:46:58;1.00;;;1.00;;
23206;SDS011;11773;52.570;13.052;2023-05-10T14:49:28;1.00;;;0.90;;
23206;SDS011;11773;52.570;13.052;2023-05-10T14:51:58;1.20;;;1.20;;
23206;SDS011;11773;52.570;13.052;2023-05-10T14:54:28;0.90;;;0.90;;
23206;SDS011;11773;52.570;13.052;2023-05-10T14:56:57;1.30;;;1.30;;
23206;SDS011;11773;52.570;13.052;2023-05-10T14:59:27;1.13;;;1.10;;
23206;SDS011;11773;52.570;13.052;2023-05-10T15:01:57;1.40;;;1.30;;
23206;SDS011;11773;52.570;13.052;2023-05-10T15:04:28;3.77;;;1.10;;
23206;SDS011;11773;52.570;13.052;2023-05-10T15:06:58;1.30;;;1.20;;
23206;SDS011;11773;52.570;13.052;2023-05-10T15:09:27;1.10;;;1.10;;
23206;SDS011;11773;52.570;13.052;2023-05-10T15:11:57;1.90;;;1.20;;
23206;SDS011;11773;52.570;13.052;2023-05-10T15:14:27;1.37;;;0.90;;
23206;SDS011;11773;52.570;13.052;2023-05-10T15:16:57;1.20;;;1.10;;